sensor_id;sensor_type;location;lat;lon;timestamp;P1;durP1;ratioP1;P2;durP2;ratioP2
19739;SDS011;10027;51.066;13.768;2024-01-11T00:02:02;17.67;;;7.53;;
19739;SDS011;10027;51.066;13.768;2024-01-11T00:04:29;15.97;;;6.80;;
19739;SDS011;10027;51.066;13.768;2024-01-11T00:06:56;14.27;;;6.00;;
19739;SDS011;10027;51.066;13.768;2024-01-11T00:09:23;14.97;;;6.40;;
19739;SDS011;10027;51.066;13.768;2024-01-11T00:11:51;11.57;;;6.50;;
19739;SDS011;10027;51.066;13.768;2024-01-11T00:14:18;17.60;;;7.17;;
19739;SDS011;10027;51.066;13.768;2024-01-11T00:16:45;15.63;;;7.00;;
19739;SDS011;10027;51.066;13.768;2024-01-11T00:19:12;19.60;;;7.30;;
19739;SDS011;10027;51.066;13.768;2024-01-11T00:21:40;18.77;;;7.03;;
19739;SDS011;10027;51.066;13.768;2024-01-11T00:24:07;15.17;;;7.50;;
19739;SDS011;10027;51.066;13.768;2024-01-11T00:26:34;16.23;;;7.33;;
19739;SDS011;10027;51.066;13.768;2024-01-11T00:29:03;17.20;;;6.77;;
19739;SDS011;10027;51.066;13.768;2024-01-11T00:31:30;16.00;;;7.07;;
19739;SDS011;10027;51.066;13.768;2024-01-11T00:33:58;19.13;;;7.70;;
19739;SDS011;10027;51.066;13.768;2024-01-11T00:36:25;20.43;;;7.23;;
19739;SDS011;10027;51.066;13.768;2024-01-11T00:38:52;12.10;;;6.03;;
19739;SDS011;10027;51.066;13.768;2024-01-11T00:41:19;14.07;;;6.90;;
19739;SDS011;10027;51.066;13.768;2024-01-11T00:43:47;17.53;;;7.73;;
19739;SDS011;10027;51.066;13.768;2024-01-11T00:46:14;17.93;;;7.53;;
19739;SDS011;10027;51.066;13.768;2024-01-11T00:48:41;19.87;;;8.23;;
19739;SDS011;10027;51.066;13.768;2024-01-11T00:51:08;22.70;;;7.67;;
19739;SDS011;10027;51.066;13.768;2024-01-11T00:53:36;17.47;;;8.07;;
19739;SDS011;10027;51.066;13.768;2024-01-11T00:56:03;14.27;;;7.93;;
19739;SDS011;10027;51.066;13.768;2024-01-11T00:58:30;17.57;;;8.60;;
19739;SDS011;10027;51.066;13.768;2024-01-11T01:00:57;19.87;;;8.17;;
19739;SDS011;10027;51.066;13.768;2024-01-11T01:03:25;22.97;;;8.43;;
19739;SDS011;10027;51.066;13.768;2024-01-11T01:05:52;22.77;;;8.77;;
19739;SDS011;10027;51.066;13.768;2024-01-11T01:08:19;24.00;;;8.87;;
19739;SDS011;10027;51.066;13.768;2024-01-11T01:10:47;23.43;;;8.83;;
19739;SDS011;10027;51.066;13.768;2024-01-11T01:13:14;18.83;;;8.73;;
19739;SDS011;10027;51.066;13.768;2024-01-11T01:15:41;19.63;;;7.60;;
19739;SDS011;10027;51.066;13.768;2024-01-11T01:18:08;24.07;;;9.47;;
19739;SDS011;10027;51.066;13.768;2024-01-11T01:20:35;20.57;;;8.00;;
19739;SDS011;10027;51.066;13.768;2024-01-11T01:23:03;19.67;;;8.53;;
19739;SDS011;10027;51.066;13.768;2024-01-11T01:25:30;22.03;;;8.07;;
19739;SDS011;10027;51.066;13.768;2024-01-11T01:27:58;22.37;;;9.40;;
19739;SDS011;10027;51.066;13.768;2024-01-11T01:30:27;19.47;;;9.23;;
19739;SDS011;10027;51.066;13.768;2024-01-11T01:32:54;31.30;;;11.57;;
19739;SDS011;10027;51.066;13.768;2024-01-11T01:35:22;22.67;;;9.13;;
19739;SDS011;10027;51.066;13.768;2024-01-11T01:37:49;20.60;;;8.23;;
19739;SDS011;10027;51.066;13.768;2024-01-11T01:40:16;20.50;;;9.10;;
19739;SDS011;10027;51.066;13.768;2024-01-11T01:42:44;18.57;;;8.33;;
19739;SDS011;10027;51.066;13.768;2024-01-11T01:45:11;25.93;;;9.10;;
19739;SDS011;10027;51.066;13.768;2024-01-11T01:47:39;23.13;;;9.50;;
19739;SDS011;10027;51.066;13.768;2024-01-11T01:50:07;23.53;;;9.23;;
19739;SDS011;10027;51.066;13.768;2024-01-11T01:52:35;29.70;;;10.17;;
19739;SDS011;10027;51.066;13.768;2024-01-11T01:55:03;26.23;;;9.93;;
19739;SDS011;10027;51.066;13.768;2024-01-11T01:57:32;22.87;;;8.60;;
19739;SDS011;10027;51.066;13.768;2024-01-11T01:59:59;23.57;;;9.40;;
19739;SDS011;10027;51.066;13.768;2024-01-11T02:02:27;27.80;;;9.97;;
19739;SDS011;10027;51.066;13.768;2024-01-11T02:04:54;27.67;;;9.93;;
19739;SDS011;10027;51.066;13.768;2024-01-11T02:07:22;29.17;;;10.20;;
19739;SDS011;10027;51.066;13.768;2024-01-11T02:09:50;27.73;;;10.03;;
19739;SDS011;10027;51.066;13.768;2024-01-11T02:12:18;33.33;;;10.20;;
19739;SDS011;10027;51.066;13.768;2024-01-11T02:14:45;23.67;;;9.23;;
19739;SDS011;10027;51.066;13.768;2024-01-11T02:17:13;23.20;;;9.63;;
19739;SDS011;10027;51.066;13.768;2024-01-11T02:19:40;26.83;;;10.53;;
19739;SDS011;10027;51.066;13.768;2024-01-11T02:22:13;27.90;;;10.27;;
19739;SDS011;10027;51.066;13.768;2024-01-11T02:24:42;24.43;;;9.83;;
19739;SDS011;10027;51.066;13.768;2024-01-11T02:27:09;22.47;;;9.17;;
19739;SDS011;10027;51.066;13.768;2024-01-11T02:29:37;24.70;;;9.23;;
19739;SDS011;10027;51.066;13.768;2024-01-11T02:32:04;25.00;;;9.37;;
19739;SDS011;10027;51.066;13.768;2024-01-11T02:34:32;27.80;;;9.40;;
19739;SDS011;10027;51.066;13.768;2024-01-11T02:37:00;30.70;;;10.90;;
19739;SDS011;10027;51.066;13.768;2024-01-11T02:39:27;29.63;;;9.80;;
19739;SDS011;10027;51.066;13.768;2024-01-11T02:41:55;21.30;;;8.50;;
19739;SDS011;10027;51.066;13.768;2024-01-11T02:44:24;33.20;;;10.97;;
19739;SDS011;10027;51.066;13.768;2024-01-11T02:46:51;27.97;;;10.20;;
19739;SDS011;10027;51.066;13.768;2024-01-11T02:49:18;22.83;;;10.27;;
19739;SDS011;10027;51.066;13.768;2024-01-11T02:51:45;29.47;;;11.23;;
19739;SDS011;10027;51.066;13.768;2024-01-11T02:54:13;23.50;;;11.10;;
19739;SDS011;10027;51.066;13.768;2024-01-11T02:56:40;26.07;;;9.97;;
19739;SDS011;10027;51.066;13.768;2024-01-11T02:59:08;24.03;;;10.77;;
19739;SDS011;10027;51.066;13.768;2024-01-11T03:01:35;30.17;;;10.83;;
19739;SDS011;10027;51.066;13.768;2024-01-11T03:04:03;22.73;;;10.27;;
19739;SDS011;10027;51.066;13.768;2024-01-11T03:06:31;25.27;;;9.87;;
19739;SDS011;10027;51.066;13.768;2024-01-11T03:08:58;32.67;;;10.33;;
19739;SDS011;10027;51.066;13.768;2024-01-11T03:11:25;24.07;;;10.20;;
19739;SDS011;10027;51.066;13.768;2024-01-11T03:13:52;31.37;;;11.23;;
19739;SDS011;10027;51.066;13.768;2024-01-11T03:16:20;21.70;;;9.90;;
19739;SDS011;10027;51.066;13.768;2024-01-11T03:18:47;33.10;;;10.73;;
19739;SDS011;10027;51.066;13.768;2024-01-11T03:21:14;32.70;;;10.77;;
19739;SDS011;10027;51.066;13.768;2024-01-11T03:23:41;28.87;;;10.37;;
19739;SDS011;10027;51.066;13.768;2024-01-11T03:26:12;21.90;;;10.20;;
19739;SDS011;10027;51.066;13.768;2024-01-11T03:28:39;23.70;;;9.87;;
19739;SDS011;10027;51.066;13.768;2024-01-11T03:31:07;24.03;;;9.43;;
19739;SDS011;10027;51.066;13.768;2024-01-11T03:33:35;25.47;;;10.73;;
19739;SDS011;10027;51.066;13.768;2024-01-11T03:36:11;23.33;;;10.33;;
19739;SDS011;10027;51.066;13.768;2024-01-11T03:38:38;24.17;;;10.43;;
19739;SDS011;10027;51.066;13.768;2024-01-11T03:41:09;23.60;;;10.30;;
19739;SDS011;10027;51.066;13.768;2024-01-11T03:43:37;24.60;;;9.73;;
19739;SDS011;10027;51.066;13.768;2024-01-11T03:46:04;29.57;;;9.50;;
19739;SDS011;10027;51.066;13.768;2024-01-11T03:48:31;22.37;;;8.43;;
19739;SDS011;10027;51.066;13.768;2024-01-11T03:50:58;23.90;;;9.33;;
19739;SDS011;10027;51.066;13.768;2024-01-11T03:53:26;20.90;;;8.37;;
19739;SDS011;10027;51.066;13.768;2024-01-11T03:55:53;16.77;;;8.00;;
19739;SDS011;10027;51.066;13.768;2024-01-11T03:58:20;20.27;;;8.67;;
19739;SDS011;10027;51.066;13.768;2024-01-11T04:00:47;22.23;;;8.73;;
19739;SDS011;10027;51.066;13.768;2024-01-11T04:03:14;19.70;;;8.67;;
19739;SDS011;10027;51.066;13.768;2024-01-11T04:05:42;19.10;;;8.60;;
19739;SDS011;10027;51.066;13.768;2024-01-11T04:08:09;20.73;;;8.50;;
19739;SDS011;10027;51.066;13.768;2024-01-11T04:10:36;15.00;;;7.63;;
19739;SDS011;10027;51.066;13.768;2024-01-11T04:13:03;17.27;;;8.33;;
19739;SDS011;10027;51.066;13.768;2024-01-11T04:15:30;20.30;;;8.73;;
19739;SDS011;10027;51.066;13.768;2024-01-11T04:17:57;22.70;;;8.90;;
19739;SDS011;10027;51.066;13.768;2024-01-11T04:20:25;16.67;;;8.57;;
19739;SDS011;10027;51.066;13.768;2024-01-11T04:22:52;18.17;;;8.53;;
19739;SDS011;10027;51.066;13.768;2024-01-11T04:25:19;27.57;;;8.80;;
19739;SDS011;10027;51.066;13.768;2024-01-11T04:27:47;21.43;;;8.47;;
19739;SDS011;10027;51.066;13.768;2024-01-11T04:30:14;22.40;;;8.40;;
19739;SDS011;10027;51.066;13.768;2024-01-11T04:32:41;21.87;;;8.07;;
19739;SDS011;10027;51.066;13.768;2024-01-11T04:35:09;23.87;;;8.47;;
19739;SDS011;10027;51.066;13.768;2024-01-11T04:37:36;18.07;;;7.40;;
19739;SDS011;10027;51.066;13.768;2024-01-11T04:40:03;15.47;;;8.00;;
19739;SDS011;10027;51.066;13.768;2024-01-11T04:42:31;24.27;;;9.03;;
19739;SDS011;10027;51.066;13.768;2024-01-11T04:44:58;18.10;;;7.63;;
19739;SDS011;10027;51.066;13.768;2024-01-11T04:47:25;23.07;;;8.37;;
19739;SDS011;10027;51.066;13.768;2024-01-11T04:49:53;20.60;;;8.20;;
19739;SDS011;10027;51.066;13.768;2024-01-11T04:52:20;23.23;;;8.47;;
19739;SDS011;10027;51.066;13.768;2024-01-11T04:54:47;21.03;;;8.50;;
19739;SDS011;10027;51.066;13.768;2024-01-11T04:57:14;20.73;;;7.90;;
19739;SDS011;10027;51.066;13.768;2024-01-11T04:59:41;16.57;;;7.43;;
19739;SDS011;10027;51.066;13.768;2024-01-11T05:02:08;17.97;;;8.00;;
19739;SDS011;10027;51.066;13.768;2024-01-11T05:04:35;20.60;;;7.73;;
19739;SDS011;10027;51.066;13.768;2024-01-11T05:07:03;21.00;;;7.57;;
19739;SDS011;10027;51.066;13.768;2024-01-11T05:09:30;17.83;;;7.47;;
19739;SDS011;10027;51.066;13.768;2024-01-11T05:11:57;20.70;;;7.30;;
19739;SDS011;10027;51.066;13.768;2024-01-11T05:14:24;23.00;;;8.53;;
19739;SDS011;10027;51.066;13.768;2024-01-11T05:16:51;21.43;;;8.37;;
19739;SDS011;10027;51.066;13.768;2024-01-11T05:19:18;21.10;;;7.93;;
19739;SDS011;10027;51.066;13.768;2024-01-11T05:21:46;17.20;;;7.17;;
19739;SDS011;10027;51.066;13.768;2024-01-11T05:24:13;19.80;;;7.53;;
19739;SDS011;10027;51.066;13.768;2024-01-11T05:26:40;15.43;;;7.70;;
19739;SDS011;10027;51.066;13.768;2024-01-11T05:29:07;18.00;;;7.03;;
19739;SDS011;10027;51.066;13.768;2024-01-11T05:31:35;20.10;;;8.13;;
19739;SDS011;10027;51.066;13.768;2024-01-11T05:34:03;18.63;;;7.80;;
19739;SDS011;10027;51.066;13.768;2024-01-11T05:36:31;16.53;;;7.20;;
19739;SDS011;10027;51.066;13.768;2024-01-11T05:38:58;16.30;;;7.40;;
19739;SDS011;10027;51.066;13.768;2024-01-11T05:41:25;15.53;;;7.27;;
19739;SDS011;10027;51.066;13.768;2024-01-11T05:43:53;20.73;;;7.23;;
19739;SDS011;10027;51.066;13.768;2024-01-11T05:46:21;19.63;;;7.23;;
19739;SDS011;10027;51.066;13.768;2024-01-11T05:48:48;14.57;;;7.53;;
19739;SDS011;10027;51.066;13.768;2024-01-11T05:51:15;21.33;;;8.13;;
19739;SDS011;10027;51.066;13.768;2024-01-11T05:53:42;23.50;;;8.40;;
19739;SDS011;10027;51.066;13.768;2024-01-11T05:56:10;18.90;;;7.20;;
19739;SDS011;10027;51.066;13.768;2024-01-11T05:58:37;14.90;;;7.23;;
19739;SDS011;10027;51.066;13.768;2024-01-11T06:01:06;17.80;;;7.77;;
19739;SDS011;10027;51.066;13.768;2024-01-11T06:03:33;18.60;;;6.83;;
19739;SDS011;10027;51.066;13.768;2024-01-11T06:06:02;20.30;;;7.50;;
19739;SDS011;10027;51.066;13.768;2024-01-11T06:08:29;18.17;;;7.13;;
19739;SDS011;10027;51.066;13.768;2024-01-11T06:10:57;14.97;;;6.73;;
19739;SDS011;10027;51.066;13.768;2024-01-11T06:13:24;17.40;;;7.67;;
19739;SDS011;10027;51.066;13.768;2024-01-11T06:15:52;21.87;;;7.47;;
19739;SDS011;10027;51.066;13.768;2024-01-11T06:18:19;18.37;;;7.47;;
19739;SDS011;10027;51.066;13.768;2024-01-11T06:20:47;14.80;;;7.13;;
19739;SDS011;10027;51.066;13.768;2024-01-11T06:23:14;15.50;;;7.23;;
19739;SDS011;10027;51.066;13.768;2024-01-11T06:25:43;15.50;;;7.27;;
19739;SDS011;10027;51.066;13.768;2024-01-11T06:28:12;18.43;;;7.30;;
19739;SDS011;10027;51.066;13.768;2024-01-11T06:30:39;18.00;;;7.37;;
19739;SDS011;10027;51.066;13.768;2024-01-11T06:33:07;16.33;;;7.37;;
19739;SDS011;10027;51.066;13.768;2024-01-11T06:35:34;20.70;;;8.63;;
19739;SDS011;10027;51.066;13.768;2024-01-11T06:38:01;19.23;;;7.90;;
19739;SDS011;10027;51.066;13.768;2024-01-11T06:40:28;19.27;;;7.40;;
19739;SDS011;10027;51.066;13.768;2024-01-11T06:42:55;16.93;;;7.93;;
19739;SDS011;10027;51.066;13.768;2024-01-11T06:45:23;14.97;;;7.77;;
19739;SDS011;10027;51.066;13.768;2024-01-11T06:47:50;16.03;;;7.10;;
19739;SDS011;10027;51.066;13.768;2024-01-11T06:50:17;23.13;;;8.13;;
19739;SDS011;10027;51.066;13.768;2024-01-11T06:52:44;17.60;;;8.03;;
19739;SDS011;10027;51.066;13.768;2024-01-11T06:55:11;17.50;;;7.23;;
19739;SDS011;10027;51.066;13.768;2024-01-11T06:57:39;20.10;;;7.73;;
19739;SDS011;10027;51.066;13.768;2024-01-11T07:00:06;25.47;;;7.53;;
19739;SDS011;10027;51.066;13.768;2024-01-11T07:02:34;16.63;;;7.57;;
19739;SDS011;10027;51.066;13.768;2024-01-11T07:05:02;18.17;;;7.83;;
19739;SDS011;10027;51.066;13.768;2024-01-11T07:07:29;22.70;;;8.03;;
19739;SDS011;10027;51.066;13.768;2024-01-11T07:09:56;19.07;;;7.07;;
19739;SDS011;10027;51.066;13.768;2024-01-11T07:12:23;17.00;;;7.33;;
19739;SDS011;10027;51.066;13.768;2024-01-11T07:14:51;16.13;;;7.50;;
19739;SDS011;10027;51.066;13.768;2024-01-11T07:17:18;16.77;;;7.30;;
19739;SDS011;10027;51.066;13.768;2024-01-11T07:19:46;20.37;;;7.27;;
19739;SDS011;10027;51.066;13.768;2024-01-11T07:22:13;21.30;;;8.47;;
19739;SDS011;10027;51.066;13.768;2024-01-11T07:24:40;17.07;;;7.77;;
19739;SDS011;10027;51.066;13.768;2024-01-11T07:27:07;14.07;;;7.30;;
19739;SDS011;10027;51.066;13.768;2024-01-11T07:29:34;19.43;;;7.83;;
19739;SDS011;10027;51.066;13.768;2024-01-11T07:32:01;14.23;;;7.37;;
19739;SDS011;10027;51.066;13.768;2024-01-11T07:34:30;22.37;;;8.37;;
19739;SDS011;10027;51.066;13.768;2024-01-11T07:36:57;15.97;;;8.43;;
19739;SDS011;10027;51.066;13.768;2024-01-11T07:39:25;22.93;;;6.90;;
19739;SDS011;10027;51.066;13.768;2024-01-11T07:41:52;21.93;;;8.00;;
19739;SDS011;10027;51.066;13.768;2024-01-11T07:44:19;19.03;;;7.93;;
19739;SDS011;10027;51.066;13.768;2024-01-11T07:46:47;21.17;;;8.17;;
19739;SDS011;10027;51.066;13.768;2024-01-11T07:49:20;18.70;;;8.73;;
19739;SDS011;10027;51.066;13.768;2024-01-11T07:51:47;19.40;;;8.23;;
19739;SDS011;10027;51.066;13.768;2024-01-11T07:54:15;22.40;;;9.37;;
19739;SDS011;10027;51.066;13.768;2024-01-11T07:56:42;24.23;;;8.90;;
19739;SDS011;10027;51.066;13.768;2024-01-11T07:59:09;18.47;;;8.13;;
19739;SDS011;10027;51.066;13.768;2024-01-11T08:01:41;18.30;;;8.23;;
19739;SDS011;10027;51.066;13.768;2024-01-11T08:04:08;22.10;;;7.77;;
19739;SDS011;10027;51.066;13.768;2024-01-11T08:06:36;21.33;;;8.97;;
19739;SDS011;10027;51.066;13.768;2024-01-11T08:09:04;24.37;;;8.77;;
19739;SDS011;10027;51.066;13.768;2024-01-11T08:11:31;32.47;;;8.67;;
19739;SDS011;10027;51.066;13.768;2024-01-11T08:14:02;16.80;;;8.30;;
19739;SDS011;10027;51.066;13.768;2024-01-11T08:16:31;19.53;;;8.47;;
19739;SDS011;10027;51.066;13.768;2024-01-11T08:18:58;15.10;;;7.57;;
19739;SDS011;10027;51.066;13.768;2024-01-11T08:21:27;17.37;;;7.37;;
19739;SDS011;10027;51.066;13.768;2024-01-11T08:23:54;20.23;;;8.57;;
19739;SDS011;10027;51.066;13.768;2024-01-11T08:26:28;26.60;;;9.20;;
19739;SDS011;10027;51.066;13.768;2024-01-11T08:28:56;22.43;;;8.80;;
19739;SDS011;10027;51.066;13.768;2024-01-11T08:31:23;22.13;;;8.63;;
19739;SDS011;10027;51.066;13.768;2024-01-11T08:33:51;17.97;;;8.53;;
19739;SDS011;10027;51.066;13.768;2024-01-11T08:36:18;32.83;;;10.10;;
19739;SDS011;10027;51.066;13.768;2024-01-11T08:38:46;23.07;;;8.70;;
19739;SDS011;10027;51.066;13.768;2024-01-11T08:41:13;21.13;;;9.23;;
19739;SDS011;10027;51.066;13.768;2024-01-11T08:43:41;33.90;;;10.37;;
19739;SDS011;10027;51.066;13.768;2024-01-11T08:46:08;27.03;;;10.40;;
19739;SDS011;10027;51.066;13.768;2024-01-11T08:48:35;34.03;;;10.53;;
19739;SDS011;10027;51.066;13.768;2024-01-11T08:51:02;23.50;;;10.27;;
19739;SDS011;10027;51.066;13.768;2024-01-11T08:53:30;25.83;;;10.20;;
19739;SDS011;10027;51.066;13.768;2024-01-11T08:55:57;27.67;;;10.53;;
19739;SDS011;10027;51.066;13.768;2024-01-11T08:58:24;25.00;;;10.43;;
19739;SDS011;10027;51.066;13.768;2024-01-11T09:00:53;26.87;;;11.90;;
19739;SDS011;10027;51.066;13.768;2024-01-11T09:03:20;26.60;;;11.50;;
19739;SDS011;10027;51.066;13.768;2024-01-11T09:05:47;30.43;;;11.43;;
19739;SDS011;10027;51.066;13.768;2024-01-11T09:08:15;29.07;;;11.47;;
19739;SDS011;10027;51.066;13.768;2024-01-11T09:10:42;41.60;;;12.67;;
19739;SDS011;10027;51.066;13.768;2024-01-11T09:13:09;38.63;;;12.73;;
19739;SDS011;10027;51.066;13.768;2024-01-11T09:15:39;34.50;;;13.07;;
19739;SDS011;10027;51.066;13.768;2024-01-11T09:18:06;40.53;;;13.30;;
19739;SDS011;10027;51.066;13.768;2024-01-11T09:20:34;34.73;;;13.03;;
19739;SDS011;10027;51.066;13.768;2024-01-11T09:23:01;50.10;;;14.23;;
19739;SDS011;10027;51.066;13.768;2024-01-11T09:25:30;42.13;;;13.87;;
19739;SDS011;10027;51.066;13.768;2024-01-11T09:27:57;36.80;;;13.60;;
19739;SDS011;10027;51.066;13.768;2024-01-11T09:30:24;43.43;;;14.03;;
19739;SDS011;10027;51.066;13.768;2024-01-11T09:32:52;49.93;;;14.80;;
19739;SDS011;10027;51.066;13.768;2024-01-11T09:35:19;45.37;;;14.57;;
19739;SDS011;10027;51.066;13.768;2024-01-11T09:37:46;43.23;;;14.53;;
19739;SDS011;10027;51.066;13.768;2024-01-11T09:40:14;35.20;;;14.30;;
19739;SDS011;10027;51.066;13.768;2024-01-11T09:42:42;52.03;;;15.43;;
19739;SDS011;10027;51.066;13.768;2024-01-11T09:45:14;48.17;;;15.13;;
19739;SDS011;10027;51.066;13.768;2024-01-11T09:47:45;47.13;;;16.30;;
19739;SDS011;10027;51.066;13.768;2024-01-11T09:50:13;54.97;;;17.57;;
19739;SDS011;10027;51.066;13.768;2024-01-11T09:52:47;58.17;;;18.63;;
19739;SDS011;10027;51.066;13.768;2024-01-11T09:55:17;56.83;;;18.43;;
19739;SDS011;10027;51.066;13.768;2024-01-11T09:57:45;56.97;;;18.50;;
19739;SDS011;10027;51.066;13.768;2024-01-11T10:00:13;62.87;;;18.73;;
19739;SDS011;10027;51.066;13.768;2024-01-11T10:02:40;58.20;;;18.70;;
19739;SDS011;10027;51.066;13.768;2024-01-11T10:05:07;67.13;;;20.57;;
19739;SDS011;10027;51.066;13.768;2024-01-11T10:07:36;73.47;;;21.90;;
19739;SDS011;10027;51.066;13.768;2024-01-11T10:10:04;63.80;;;20.40;;
19739;SDS011;10027;51.066;13.768;2024-01-11T10:12:36;74.33;;;21.87;;
19739;SDS011;10027;51.066;13.768;2024-01-11T10:15:07;72.47;;;21.03;;
19739;SDS011;10027;51.066;13.768;2024-01-11T10:17:45;71.77;;;20.27;;
19739;SDS011;10027;51.066;13.768;2024-01-11T10:20:13;64.73;;;20.57;;
19739;SDS011;10027;51.066;13.768;2024-01-11T10:22:41;57.23;;;18.73;;
19739;SDS011;10027;51.066;13.768;2024-01-11T10:27:38;71.43;;;20.83;;
19739;SDS011;10027;51.066;13.768;2024-01-11T10:30:08;67.70;;;20.10;;
19739;SDS011;10027;51.066;13.768;2024-01-11T10:32:35;60.50;;;18.83;;
19739;SDS011;10027;51.066;13.768;2024-01-11T10:35:02;65.03;;;18.57;;
19739;SDS011;10027;51.066;13.768;2024-01-11T10:37:31;65.13;;;19.33;;
19739;SDS011;10027;51.066;13.768;2024-01-11T10:40:02;67.20;;;19.17;;
19739;SDS011;10027;51.066;13.768;2024-01-11T10:42:31;73.07;;;20.17;;
19739;SDS011;10027;51.066;13.768;2024-01-11T10:44:59;64.43;;;18.27;;
19739;SDS011;10027;51.066;13.768;2024-01-11T10:47:29;62.03;;;18.13;;
19739;SDS011;10027;51.066;13.768;2024-01-11T10:49:58;60.30;;;19.07;;
19739;SDS011;10027;51.066;13.768;2024-01-11T10:52:31;66.87;;;20.40;;
19739;SDS011;10027;51.066;13.768;2024-01-11T10:55:03;81.57;;;22.17;;
19739;SDS011;10027;51.066;13.768;2024-01-11T10:57:30;75.73;;;21.57;;
19739;SDS011;10027;51.066;13.768;2024-01-11T10:59:59;72.37;;;21.27;;
19739;SDS011;10027;51.066;13.768;2024-01-11T11:02:29;77.27;;;20.23;;
19739;SDS011;10027;51.066;13.768;2024-01-11T11:04:56;68.10;;;20.43;;
19739;SDS011;10027;51.066;13.768;2024-01-11T11:07:24;64.13;;;20.33;;
19739;SDS011;10027;51.066;13.768;2024-01-11T11:09:53;76.83;;;20.67;;
19739;SDS011;10027;51.066;13.768;2024-01-11T11:12:22;75.00;;;22.37;;
19739;SDS011;10027;51.066;13.768;2024-01-11T11:14:49;78.40;;;20.93;;
19739;SDS011;10027;51.066;13.768;2024-01-11T11:17:17;72.33;;;20.53;;
19739;SDS011;10027;51.066;13.768;2024-01-11T11:19:44;70.57;;;20.70;;
19739;SDS011;10027;51.066;13.768;2024-01-11T11:22:12;70.97;;;21.77;;
19739;SDS011;10027;51.066;13.768;2024-01-11T11:24:41;62.67;;;19.47;;
19739;SDS011;10027;51.066;13.768;2024-01-11T11:27:08;64.80;;;20.03;;
19739;SDS011;10027;51.066;13.768;2024-01-11T11:29:35;74.73;;;19.73;;
19739;SDS011;10027;51.066;13.768;2024-01-11T11:32:03;64.77;;;19.57;;
19739;SDS011;10027;51.066;13.768;2024-01-11T11:34:40;67.80;;;19.70;;
19739;SDS011;10027;51.066;13.768;2024-01-11T11:37:11;62.07;;;19.63;;
19739;SDS011;10027;51.066;13.768;2024-01-11T11:39:39;58.07;;;18.93;;
19739;SDS011;10027;51.066;13.768;2024-01-11T11:42:09;70.87;;;19.53;;
19739;SDS011;10027;51.066;13.768;2024-01-11T11:44:46;67.07;;;19.07;;
19739;SDS011;10027;51.066;13.768;2024-01-11T11:47:20;61.03;;;19.77;;
19739;SDS011;10027;51.066;13.768;2024-01-11T11:52:33;68.70;;;19.60;;
19739;SDS011;10027;51.066;13.768;2024-01-11T11:55:03;69.93;;;19.70;;
19739;SDS011;10027;51.066;13.768;2024-01-11T11:57:31;65.53;;;20.20;;
19739;SDS011;10027;51.066;13.768;2024-01-11T12:00:00;72.53;;;19.87;;
19739;SDS011;10027;51.066;13.768;2024-01-11T12:02:31;72.43;;;21.37;;
19739;SDS011;10027;51.066;13.768;2024-01-11T12:04:59;68.60;;;21.10;;
19739;SDS011;10027;51.066;13.768;2024-01-11T12:07:26;66.27;;;21.33;;
19739;SDS011;10027;51.066;13.768;2024-01-11T12:09:54;70.93;;;22.83;;
19739;SDS011;10027;51.066;13.768;2024-01-11T12:12:21;80.33;;;24.93;;
19739;SDS011;10027;51.066;13.768;2024-01-11T12:14:48;77.37;;;24.33;;
19739;SDS011;10027;51.066;13.768;2024-01-11T12:17:16;79.23;;;23.30;;
19739;SDS011;10027;51.066;13.768;2024-01-11T12:19:43;72.63;;;22.00;;
19739;SDS011;10027;51.066;13.768;2024-01-11T12:22:10;67.20;;;20.17;;
19739;SDS011;10027;51.066;13.768;2024-01-11T12:24:37;62.43;;;20.07;;
19739;SDS011;10027;51.066;13.768;2024-01-11T12:27:05;70.67;;;19.83;;
19739;SDS011;10027;51.066;13.768;2024-01-11T12:29:32;61.27;;;19.67;;
19739;SDS011;10027;51.066;13.768;2024-01-11T12:32:13;69.60;;;20.23;;
19739;SDS011;10027;51.066;13.768;2024-01-11T12:34:43;60.50;;;19.87;;
19739;SDS011;10027;51.066;13.768;2024-01-11T12:37:10;69.30;;;20.23;;
19739;SDS011;10027;51.066;13.768;2024-01-11T12:39:38;65.90;;;19.87;;
19739;SDS011;10027;51.066;13.768;2024-01-11T12:42:05;69.53;;;19.40;;
19739;SDS011;10027;51.066;13.768;2024-01-11T12:44:33;68.80;;;19.37;;
19739;SDS011;10027;51.066;13.768;2024-01-11T12:47:01;64.50;;;19.77;;
19739;SDS011;10027;51.066;13.768;2024-01-11T12:49:28;65.90;;;20.73;;
19739;SDS011;10027;51.066;13.768;2024-01-11T12:51:56;69.33;;;21.67;;
19739;SDS011;10027;51.066;13.768;2024-01-11T12:54:23;67.17;;;21.40;;
19739;SDS011;10027;51.066;13.768;2024-01-11T12:56:50;64.97;;;20.13;;
19739;SDS011;10027;51.066;13.768;2024-01-11T12:59:17;69.30;;;19.80;;
19739;SDS011;10027;51.066;13.768;2024-01-11T13:01:45;61.10;;;19.93;;
19739;SDS011;10027;51.066;13.768;2024-01-11T13:04:12;65.10;;;18.87;;
19739;SDS011;10027;51.066;13.768;2024-01-11T13:06:39;62.13;;;18.83;;
19739;SDS011;10027;51.066;13.768;2024-01-11T13:09:06;60.87;;;18.13;;
19739;SDS011;10027;51.066;13.768;2024-01-11T13:11:34;56.73;;;18.20;;
19739;SDS011;10027;51.066;13.768;2024-01-11T13:14:01;62.90;;;18.07;;
19739;SDS011;10027;51.066;13.768;2024-01-11T13:16:32;72.43;;;18.27;;
19739;SDS011;10027;51.066;13.768;2024-01-11T13:19:00;50.97;;;17.07;;
19739;SDS011;10027;51.066;13.768;2024-01-11T13:21:27;50.37;;;17.80;;
19739;SDS011;10027;51.066;13.768;2024-01-11T13:23:54;64.57;;;17.87;;
19739;SDS011;10027;51.066;13.768;2024-01-11T13:26:23;60.80;;;17.53;;
19739;SDS011;10027;51.066;13.768;2024-01-11T13:28:51;53.93;;;16.03;;
19739;SDS011;10027;51.066;13.768;2024-01-11T13:31:18;58.50;;;17.70;;
19739;SDS011;10027;51.066;13.768;2024-01-11T13:33:47;58.00;;;17.33;;
19739;SDS011;10027;51.066;13.768;2024-01-11T13:36:15;52.70;;;16.67;;
19739;SDS011;10027;51.066;13.768;2024-01-11T13:38:42;54.53;;;16.43;;
19739;SDS011;10027;51.066;13.768;2024-01-11T13:41:09;56.97;;;16.73;;
19739;SDS011;10027;51.066;13.768;2024-01-11T13:43:37;57.83;;;17.07;;
19739;SDS011;10027;51.066;13.768;2024-01-11T13:46:04;56.27;;;16.87;;
19739;SDS011;10027;51.066;13.768;2024-01-11T13:48:32;56.97;;;16.47;;
19739;SDS011;10027;51.066;13.768;2024-01-11T13:51:00;55.03;;;15.23;;
19739;SDS011;10027;51.066;13.768;2024-01-11T13:53:29;54.93;;;16.57;;
19739;SDS011;10027;51.066;13.768;2024-01-11T13:55:57;56.30;;;16.97;;
19739;SDS011;10027;51.066;13.768;2024-01-11T13:58:24;53.07;;;15.40;;
19739;SDS011;10027;51.066;13.768;2024-01-11T14:00:51;52.27;;;16.83;;
19739;SDS011;10027;51.066;13.768;2024-01-11T14:03:20;54.10;;;16.63;;
19739;SDS011;10027;51.066;13.768;2024-01-11T14:05:47;55.97;;;17.40;;
19739;SDS011;10027;51.066;13.768;2024-01-11T14:08:15;52.53;;;17.00;;
19739;SDS011;10027;51.066;13.768;2024-01-11T14:10:42;62.00;;;16.43;;
19739;SDS011;10027;51.066;13.768;2024-01-11T14:13:10;56.40;;;16.50;;
19739;SDS011;10027;51.066;13.768;2024-01-11T14:15:37;54.10;;;16.33;;
19739;SDS011;10027;51.066;13.768;2024-01-11T14:18:05;54.93;;;16.13;;
19739;SDS011;10027;51.066;13.768;2024-01-11T14:20:34;49.60;;;16.60;;
19739;SDS011;10027;51.066;13.768;2024-01-11T14:23:01;62.27;;;17.03;;
19739;SDS011;10027;51.066;13.768;2024-01-11T14:25:29;50.27;;;16.30;;